createdAt,value
2019-04-07T00:02:14.232Z,62.47
2019-04-07T00:04:43.003Z,65.23
2019-04-07T00:07:14.709Z,66.70
2019-04-07T00:09:45.788Z,63.43
2019-04-07T00:12:14.094Z,67.80
2019-04-07T00:14:45.494Z,61.27
2019-04-07T00:17:13.810Z,64.07
2019-04-07T00:19:42.480Z,66.47
2019-04-07T00:22:11.322Z,71.50
2019-04-07T00:24:39.436Z,70.13
2019-04-07T00:27:07.385Z,68.70
2019-04-07T00:29:35.724Z,64.60
2019-04-07T00:32:06.536Z,68.10
2019-04-07T00:34:34.822Z,68.43
2019-04-07T00:37:03.085Z,66.00
2019-04-07T00:39:31.445Z,65.80
2019-04-07T00:42:00.056Z,72.17
2019-04-07T00:44:29.030Z,68.47
2019-04-07T00:46:57.680Z,73.33
2019-04-07T00:49:25.979Z,74.17
2019-04-07T00:51:55.421Z,73.60
2019-04-07T00:54:25.454Z,67.40
2019-04-07T00:56:53.649Z,77.20
2019-04-07T00:59:23.506Z,71.13
2019-04-07T01:01:55.239Z,72.57
2019-04-07T01:04:23.479Z,67.57
2019-04-07T01:06:52.636Z,70.83
2019-04-07T01:09:20.823Z,73.93
2019-04-07T01:11:52.358Z,77.17
2019-04-07T01:14:20.657Z,74.73
2019-04-07T01:16:49.859Z,71.23
2019-04-07T01:19:17.932Z,69.17
2019-04-07T01:21:45.863Z,74.40
2019-04-07T01:24:14.477Z,76.03
2019-04-07T01:26:42.776Z,71.13
2019-04-07T01:29:13.491Z,77.37
2019-04-07T01:31:41.649Z,76.13
2019-04-07T01:34:09.795Z,74.50
2019-04-07T01:36:38.106Z,73.30
2019-04-07T01:39:09.248Z,71.70
2019-04-07T01:41:46.173Z,73.57
2019-04-07T01:44:50.814Z,77.60
2019-04-07T01:47:38.466Z,71.40
2019-04-07T01:50:28.587Z,73.67
2019-04-07T01:53:04.912Z,77.53
2019-04-07T01:55:59.545Z,74.40
2019-04-07T01:58:48.263Z,73.77
2019-04-07T02:01:36.281Z,75.43
2019-04-07T02:04:15.494Z,76.00
2019-04-07T02:07:14.838Z,79.47
2019-04-07T02:09:55.642Z,73.43
2019-04-07T02:12:47.799Z,75.07
2019-04-07T02:15:24.282Z,82.70
2019-04-07T02:18:02.380Z,79.37
2019-04-07T02:21:16.149Z,74.10
2019-04-07T02:23:53.586Z,73.37
2019-04-07T02:26:27.872Z,73.60
2019-04-07T02:29:18.194Z,77.80
2019-04-07T02:32:21.507Z,76.50
2019-04-07T02:34:59.137Z,75.77
2019-04-07T02:37:50.912Z,78.77
2019-04-07T02:40:41.138Z,77.63
2019-04-07T02:43:38.184Z,75.27
2019-04-07T02:46:35.180Z,78.90
2019-04-07T02:49:26.266Z,79.10
2019-04-07T02:52:11.688Z,75.93
2019-04-07T02:54:49.686Z,78.30
2019-04-07T02:57:26.120Z,76.30
2019-04-07T03:00:13.948Z,82.43
2019-04-07T03:03:01.801Z,78.40
2019-04-07T03:05:43.689Z,77.57
2019-04-07T03:08:30.248Z,81.40
2019-04-07T03:11:22.221Z,83.00
2019-04-07T03:14:10.911Z,89.13
2019-04-07T03:16:49.553Z,82.87
2019-04-07T03:19:23.632Z,85.40
2019-04-07T03:22:06.507Z,88.87
2019-04-07T03:25:00.189Z,83.03
2019-04-07T03:27:45.048Z,84.70
2019-04-07T03:30:37.509Z,80.43
2019-04-07T03:33:32.592Z,83.83
2019-04-07T03:36:24.281Z,81.73
2019-04-07T03:39:11.054Z,84.73
2019-04-07T03:41:47.457Z,88.90
2019-04-07T03:44:37.740Z,85.20
2019-04-07T03:47:18.808Z,84.00
2019-04-07T03:49:52.857Z,85.97
2019-04-07T03:52:39.315Z,89.57
2019-04-07T03:55:44.049Z,85.10
2019-04-07T03:58:26.251Z,88.57
2019-04-07T04:01:22.310Z,83.53
2019-04-07T04:04:08.028Z,85.57
2019-04-07T04:06:54.703Z,81.13
2019-04-07T04:09:39.106Z,86.23
2019-04-07T04:12:19.668Z,80.53
2019-04-07T04:14:52.743Z,85.93
2019-04-07T04:17:21.253Z,83.90
2019-04-07T04:19:49.629Z,80.97
2019-04-07T04:22:18.659Z,87.27
2019-04-07T04:24:47.160Z,85.73
2019-04-07T04:27:15.310Z,84.97
2019-04-07T04:29:43.611Z,80.47
2019-04-07T04:32:13.439Z,77.50
2019-04-07T04:34:41.791Z,80.37
2019-04-07T04:37:10.175Z,82.50
2019-04-07T04:39:38.816Z,81.07
2019-04-07T04:42:07.085Z,84.40
2019-04-07T04:44:35.865Z,79.00
2019-04-07T04:47:56.141Z,79.80
2019-04-07T04:50:23.774Z,76.80
2019-04-07T04:52:58.200Z,74.67
2019-04-07T04:55:26.108Z,78.53
2019-04-07T04:57:54.496Z,74.20
2019-04-07T05:00:24.455Z,76.00
2019-04-07T05:02:56.043Z,76.80
2019-04-07T05:05:24.385Z,69.80
2019-04-07T05:08:00.782Z,76.93
2019-04-07T05:10:25.558Z,70.57
2019-04-07T05:12:53.782Z,71.63
2019-04-07T05:15:23.060Z,72.93
2019-04-07T05:17:53.887Z,65.43
2019-04-07T05:23:52.971Z,70.73
2019-04-07T05:26:24.541Z,67.23
2019-04-07T05:28:52.886Z,59.87
2019-04-07T05:31:23.578Z,66.80
2019-04-07T05:33:53.847Z,65.10
2019-04-07T05:36:22.362Z,68.43
2019-04-07T05:38:50.881Z,65.60
2019-04-07T05:41:35.113Z,58.07
2019-04-07T05:47:31.497Z,56.17
2019-04-07T05:50:03.880Z,48.57
2019-04-07T05:55:59.902Z,49.03
2019-04-07T05:58:30.944Z,50.90
2019-04-07T06:11:04.075Z,42.03
2019-04-07T06:26:28.529Z,40.33
2019-04-07T07:25:10.322Z,35.37
2019-04-07T07:27:43.036Z,33.38
2019-04-07T07:30:28.247Z,34.75
2019-04-07T07:33:06.528Z,35.85
2019-04-07T07:35:36.408Z,34.90
2019-04-07T07:38:27.005Z,35.75
2019-04-07T07:41:28.050Z,34.85
2019-04-07T07:47:04.764Z,36.53
2019-04-07T07:52:44.302Z,35.00
2019-04-07T07:58:35.884Z,34.83
2019-04-07T08:01:26.175Z,34.65
2019-04-07T08:04:09.622Z,35.17
2019-04-07T08:10:14.960Z,34.13
2019-04-07T08:12:49.636Z,36.05
2019-04-07T08:15:36.651Z,34.48
2019-04-07T08:18:19.865Z,34.98
2019-04-07T08:24:03.654Z,34.58
2019-04-07T08:27:12.843Z,32.58
2019-04-07T08:29:45.147Z,32.93
2019-04-07T08:32:30.780Z,32.17
2019-04-07T08:35:16.332Z,31.33
2019-04-07T08:37:58.503Z,32.75
2019-04-07T08:40:32.680Z,32.45
2019-04-07T08:43:13.650Z,32.77
2019-04-07T08:46:06.045Z,29.10
2019-04-07T09:37:58.900Z,31.97
2019-04-07T09:40:51.630Z,28.30
2019-04-07T09:43:46.663Z,27.57
2019-04-07T09:47:06.618Z,26.17
2019-04-07T09:50:00.506Z,26.07
2019-04-07T09:56:38.916Z,24.40
2019-04-07T10:02:44.801Z,18.90
2019-04-07T10:05:34.110Z,16.57
2019-04-07T10:08:43.184Z,17.03
2019-04-07T10:12:14.023Z,17.63
2019-04-07T10:14:56.331Z,20.77
2019-04-07T10:17:34.038Z,15.03
2019-04-07T10:20:28.540Z,17.20
2019-04-07T10:27:08.220Z,16.20
2019-04-07T11:26:28.030Z,13.83
2019-04-07T11:30:07.103Z,13.20
2019-04-07T11:32:12.771Z,13.17
2019-04-07T11:35:14.881Z,13.40
2019-04-07T11:41:28.777Z,14.53
2019-04-07T11:44:15.008Z,13.63
2019-04-07T11:47:28.692Z,13.33
2019-04-07T11:53:39.627Z,12.30
2019-04-07T11:56:31.232Z,13.37
2019-04-07T11:59:24.831Z,12.57
2019-04-07T12:02:24.537Z,12.93
2019-04-07T12:05:37.754Z,16.33
2019-04-07T12:08:38.668Z,18.13
2019-04-07T12:12:24.573Z,13.73
2019-04-07T12:15:40.049Z,12.43
2019-04-07T12:18:17.925Z,13.90
2019-04-07T12:24:18.922Z,12.70
2019-04-07T12:30:55.246Z,15.67
2019-04-07T12:34:02.897Z,14.93
2019-04-07T12:37:39.319Z,14.13
2019-04-07T12:40:18.393Z,16.07
2019-04-07T12:43:22.966Z,13.53
2019-04-07T12:46:24.572Z,13.10
2019-04-07T12:49:42.183Z,13.83
2019-04-07T12:53:25.160Z,14.90
2019-04-07T12:56:34.349Z,13.00
2019-04-07T13:02:05.444Z,16.07
2019-04-07T13:04:52.784Z,15.90
2019-04-07T13:11:50.406Z,14.67
2019-04-07T13:15:24.862Z,15.57
2019-04-07T13:18:13.401Z,13.23
2019-04-07T13:21:05.816Z,12.43
2019-04-07T13:24:06.198Z,13.27
2019-04-07T13:26:52.305Z,12.70
2019-04-07T13:29:56.419Z,15.40
2019-04-07T13:32:53.102Z,12.57
2019-04-07T13:35:53.491Z,12.73
2019-04-07T13:38:50.178Z,12.50
2019-04-07T13:42:18.275Z,12.63
2019-04-07T13:45:39.009Z,12.60
2019-04-07T13:48:31.170Z,15.10
2019-04-07T13:51:44.663Z,12.37
2019-04-07T13:54:37.351Z,15.13
2019-04-07T14:01:07.337Z,13.43
2019-04-07T14:03:52.275Z,12.43
2019-04-07T14:06:44.537Z,12.33
2019-04-07T14:09:57.095Z,16.33
2019-04-07T14:12:58.658Z,12.87
2019-04-07T14:15:59.702Z,10.93
2019-04-07T14:19:13.468Z,11.67
2019-04-07T14:22:06.478Z,11.77
2019-04-07T14:25:19.102Z,12.57
2019-04-07T14:28:20.094Z,13.00
2019-04-07T14:31:26.983Z,12.67
2019-04-07T14:34:47.645Z,15.57
2019-04-07T14:37:31.855Z,11.07
2019-04-07T14:40:43.462Z,12.00
2019-04-07T14:44:05.219Z,10.50
2019-04-07T14:54:23.482Z,11.67
2019-04-07T15:00:54.734Z,11.93
2019-04-07T15:03:42.704Z,11.63
2019-04-07T15:07:11.378Z,12.50
2019-04-07T15:13:29.748Z,11.00
2019-04-07T15:16:28.868Z,13.33
2019-04-07T15:19:47.734Z,12.10
2019-04-07T16:36:43.833Z,10.97
2019-04-07T16:39:13.539Z,14.93
2019-04-07T16:41:44.225Z,12.60
2019-04-07T16:44:12.988Z,13.07
2019-04-07T16:46:42.675Z,11.87
2019-04-07T16:49:16.990Z,14.93
2019-04-07T16:51:47.304Z,16.43
2019-04-07T16:54:28.881Z,13.97
2019-04-07T16:57:05.228Z,12.80
2019-04-07T16:59:47.841Z,12.90
2019-04-07T17:02:29.556Z,14.80
2019-04-07T17:05:01.608Z,14.33
2019-04-07T17:07:32.800Z,12.80
2019-04-07T17:10:46.653Z,12.40
2019-04-07T17:17:53.371Z,12.43
2019-04-07T17:25:00.937Z,12.17
2019-04-07T17:28:18.332Z,12.37
2019-04-07T17:43:53.259Z,15.43
2019-04-07T21:07:29.816Z,27.70
2019-04-07T21:13:23.651Z,23.40
2019-04-07T21:16:29.910Z,24.43
2019-04-07T21:19:22.857Z,26.87
2019-04-07T21:22:08.806Z,23.47
2019-04-07T21:24:51.395Z,23.60
2019-04-07T21:27:37.567Z,22.90
2019-04-07T21:30:34.954Z,24.67
2019-04-07T21:33:26.978Z,29.17
2019-04-07T21:36:16.264Z,23.70
2019-04-07T21:38:55.211Z,24.30
2019-04-07T21:41:54.217Z,22.40
2019-04-07T21:44:33.997Z,22.43
2019-04-07T21:47:11.932Z,22.67
2019-04-07T21:50:08.461Z,22.10
2019-04-07T21:52:55.698Z,23.37
2019-04-07T21:55:35.882Z,23.47
2019-04-07T21:58:29.451Z,24.83
2019-04-07T22:01:17.211Z,25.53
2019-04-07T22:03:54.855Z,24.03
2019-04-07T22:06:35.987Z,24.53
2019-04-07T22:09:15.860Z,24.40
2019-04-07T22:11:49.468Z,30.23
2019-04-07T22:14:21.063Z,25.67
2019-04-07T22:16:49.554Z,24.80
2019-04-07T22:19:22.646Z,29.00
2019-04-07T22:21:55.106Z,25.63
2019-04-07T22:24:22.633Z,24.03
2019-04-07T22:26:51.537Z,27.03
2019-04-07T22:29:20.685Z,24.77
2019-04-07T22:31:51.640Z,24.23
2019-04-07T22:34:20.757Z,25.00
2019-04-07T22:36:49.759Z,21.83
2019-04-07T22:39:18.902Z,23.27
2019-04-07T22:41:48.283Z,22.33
2019-04-07T22:44:19.967Z,23.50
2019-04-07T22:46:49.536Z,28.00
2019-04-07T22:49:17.774Z,25.70
2019-04-07T22:51:47.056Z,23.17
2019-04-07T22:54:16.707Z,22.40
2019-04-07T22:56:44.852Z,24.87
2019-04-07T22:59:15.842Z,21.80
2019-04-07T23:01:44.718Z,23.77
2019-04-07T23:04:15.014Z,22.43
2019-04-07T23:06:44.601Z,26.27
2019-04-07T23:09:14.260Z,26.00
2019-04-07T23:11:42.875Z,27.00
2019-04-07T23:14:11.521Z,27.73
2019-04-07T23:16:40.362Z,29.97
2019-04-07T23:19:10.955Z,26.37
2019-04-07T23:21:40.221Z,28.90
2019-04-07T23:24:12.849Z,25.40
2019-04-07T23:26:42.671Z,31.00
2019-04-07T23:29:12.149Z,28.53
2019-04-07T23:31:40.881Z,30.27
2019-04-07T23:34:11.731Z,29.23
2019-04-07T23:36:40.339Z,27.30
2019-04-07T23:39:09.948Z,23.27
2019-04-07T23:41:39.369Z,24.80
2019-04-07T23:44:09.413Z,22.90
2019-04-07T23:46:41.379Z,23.50
2019-04-07T23:49:09.989Z,27.00
2019-04-07T23:51:39.439Z,26.80
2019-04-07T23:54:14.829Z,23.37
2019-04-07T23:56:47.777Z,23.57
2019-04-07T23:59:16.781Z,22.33
